Time,TemperatureF,DewpointF,PressureIn,WindDirection,WindDirectionDegrees,WindSpeedMPH,WindSpeedGustMPH,Humidity,HourlyPrecipIn,Conditions,Clouds,dailyrainin,SoftwareType,DateUTC
2013-07-22 00:01:00,68.0,59.0,-100.00,East,80,11.0,16.0,74,-99.99,,,-99.99,,2013-07-22 04:01:00,
2013-07-22 00:22:00,68.0,61.0,-100.00,East,90,13.0,16.0,78,-99.99,,,-99.99,,2013-07-22 04:22:00,
2013-07-22 00:33:00,68.0,61.0,-100.00,East,90,13.0,16.0,78,-99.99,,,-99.99,,2013-07-22 04:33:00,
2013-07-22 00:42:00,68.0,61.0,-100.00,East,90,13.0,16.0,78,-99.99,,,-99.99,,2013-07-22 04:42:00,
2013-07-22 01:01:00,67.0,61.0,-100.00,East,90,13.0,16.0,80,-99.99,,,-99.99,,2013-07-22 05:01:00,
2013-07-22 01:22:00,67.0,61.0,-100.00,ESE,110,11.0,16.0,79,-99.99,,,-99.99,,2013-07-22 05:22:00,
2013-07-22 01:32:00,67.0,61.0,-100.00,ESE,110,11.0,16.0,79,-99.99,,,-99.99,,2013-07-22 05:32:00,
2013-07-22 01:42:00,67.0,61.0,-100.00,ESE,110,11.0,16.0,79,-99.99,,,-99.99,,2013-07-22 05:42:00,
2013-07-22 01:52:00,67.0,61.0,-100.00,ESE,110,11.0,16.0,79,-99.99,,,-99.99,,2013-07-22 05:52:00,
2013-07-22 02:01:00,67.0,61.0,-100.00,ESE,110,11.0,16.0,80,-99.99,,,-99.99,,2013-07-22 06:01:00,
2013-07-22 02:11:00,67.0,61.0,-100.00,ESE,120,11.0,13.0,79,-99.99,,,-99.99,,2013-07-22 06:11:00,
2013-07-22 02:21:00,67.0,61.0,-100.00,ESE,120,11.0,13.0,79,-99.99,,,-99.99,,2013-07-22 06:21:00,
2013-07-22 02:32:00,67.0,61.0,-100.00,ESE,120,9.0,13.0,80,-99.99,,,-99.99,,2013-07-22 06:32:00,
2013-07-22 02:43:00,67.0,61.0,-100.00,ESE,120,9.0,13.0,80,-99.99,,,-99.99,,2013-07-22 06:43:00,
2013-07-22 02:52:00,67.0,61.0,-100.00,ESE,120,9.0,13.0,80,-99.99,,,-99.99,,2013-07-22 06:52:00,
2013-07-22 03:01:00,66.0,61.0,-100.00,SE,130,9.0,11.0,81,-99.99,,,-99.99,,2013-07-22 07:01:00,
2013-07-22 03:11:00,66.0,61.0,-100.00,SE,130,9.0,11.0,81,-99.99,,,-99.99,,2013-07-22 07:11:00,
2013-07-22 03:22:00,66.0,60.0,-100.00,SE,140,9.0,13.0,79,-99.99,,,-99.99,,2013-07-22 07:22:00,
2013-07-22 03:33:00,66.0,60.0,-100.00,SE,140,9.0,13.0,79,-99.99,,,-99.99,,2013-07-22 07:33:00,
2013-07-22 03:43:00,66.0,59.0,-100.00,SE,140,9.0,11.0,78,-99.99,,,-99.99,,2013-07-22 07:43:00,
2013-07-22 03:52:00,66.0,59.0,-100.00,SE,140,9.0,11.0,78,-99.99,,,-99.99,,2013-07-22 07:52:00,
2013-07-22 04:01:00,66.0,59.0,-100.00,SE,140,9.0,11.0,78,-99.99,,,-99.99,,2013-07-22 08:01:00,
2013-07-22 04:11:00,66.0,59.0,-100.00,ESE,120,7.0,9.0,77,-99.99,,,-99.99,,2013-07-22 08:11:00,
2013-07-22 04:22:00,66.0,60.0,-100.00,SE,130,7.0,13.0,79,-99.99,,,-99.99,,2013-07-22 08:22:00,
2013-07-22 04:32:00,66.0,60.0,-100.00,ESE,110,9.0,13.0,81,-99.99,,,-99.99,,2013-07-22 08:32:00,
2013-07-22 04:43:00,66.0,61.0,-100.00,ESE,120,11.0,13.0,83,-99.99,,,-99.99,,2013-07-22 08:43:00,
2013-07-22 04:52:00,66.0,61.0,-100.00,ESE,120,11.0,13.0,83,-99.99,,,-99.99,,2013-07-22 08:52:00,
2013-07-22 05:02:00,66.0,61.0,-100.00,ESE,120,11.0,13.0,83,-99.99,,,-99.99,,2013-07-22 09:02:00,
2013-07-22 05:11:00,66.0,61.0,-100.00,ESE,120,11.0,13.0,83,-99.99,,,-99.99,,2013-07-22 09:11:00,
2013-07-22 05:22:00,65.0,61.0,-100.00,SE,130,11.0,16.0,85,-99.99,,,-99.99,,2013-07-22 09:22:00,
2013-07-22 05:33:00,65.0,61.0,-100.00,SE,130,11.0,16.0,85,-99.99,,,-99.99,,2013-07-22 09:33:00,
2013-07-22 05:42:00,65.0,61.0,-100.00,SE,130,11.0,16.0,85,-99.99,,,-99.99,,2013-07-22 09:42:00,
2013-07-22 05:52:00,65.0,61.0,-100.00,SE,130,11.0,16.0,85,-99.99,,,-99.99,,2013-07-22 09:52:00,
2013-07-22 06:00:00,65.0,61.0,-100.00,SE,140,11.0,16.0,87,-99.99,,,-99.99,,2013-07-22 10:00:00,
2013-07-22 06:01:00,65.0,61.0,-100.00,SE,130,11.0,13.0,87,-99.99,,,-99.99,,2013-07-22 10:01:00,
2013-07-22 06:11:00,65.0,61.0,-100.00,SE,140,11.0,13.0,87,-99.99,,,-99.99,,2013-07-22 10:11:00,
2013-07-22 06:22:00,65.0,61.0,-100.00,SE,140,11.0,16.0,87,-99.99,,,-99.99,,2013-07-22 10:22:00,
2013-07-22 06:32:00,65.0,61.0,-100.00,SE,140,11.0,16.0,87,-99.99,,,-99.99,,2013-07-22 10:32:00,
2013-07-22 06:43:00,65.0,61.0,-100.00,SE,140,11.0,16.0,87,-99.99,,,-99.99,,2013-07-22 10:43:00,
2013-07-22 06:52:00,65.0,61.0,-100.00,SE,140,11.0,16.0,87,-99.99,,,-99.99,,2013-07-22 10:52:00,
2013-07-22 07:43:00,65.0,61.0,-100.00,SE,140,7.0,9.0,85,-99.99,,,-99.99,,2013-07-22 11:43:00,
2013-07-22 07:52:00,66.0,62.0,-100.00,SE,140,9.0,11.0,85,-99.99,,,-99.99,,2013-07-22 11:52:00,
2013-07-22 08:00:00,67.0,62.0,-100.00,SSE,160,11.0,13.0,85,-99.99,,,-99.99,,2013-07-22 12:00:00,
2013-07-22 08:02:00,66.0,62.0,-100.00,SSE,150,9.0,13.0,85,-99.99,,,-99.99,,2013-07-22 12:02:00,
2013-07-22 08:11:00,66.0,62.0,-100.00,SSE,160,9.0,13.0,86,-99.99,,,-99.99,,2013-07-22 12:11:00,
2013-07-22 08:22:00,66.0,62.0,-100.00,SSE,160,9.0,13.0,86,-99.99,,,-99.99,,2013-07-22 12:22:00,
2013-07-22 08:32:00,66.0,62.0,-100.00,SSE,160,9.0,13.0,86,-99.99,,,-99.99,,2013-07-22 12:32:00,
2013-07-22 08:43:00,67.0,62.0,-100.00,SSE,160,11.0,13.0,85,-99.99,,,-99.99,,2013-07-22 12:43:00,
2013-07-22 08:52:00,67.0,62.0,-100.00,SSE,160,11.0,13.0,85,-99.99,,,-99.99,,2013-07-22 12:52:00,
2013-07-22 09:20:00,69.0,63.0,-100.00,SSW,210,9.0,11.0,79,-99.99,,,-99.99,,2013-07-22 13:20:00,
2013-07-22 09:32:00,69.0,63.0,-100.00,SSW,200,9.0,13.0,82,-99.99,,,-99.99,,2013-07-22 13:32:00,
2013-07-22 09:43:00,69.0,63.0,-100.00,SSW,200,9.0,13.0,82,-99.99,,,-99.99,,2013-07-22 13:43:00,
2013-07-22 10:01:00,69.0,63.0,-100.00,SSW,210,9.0,11.0,79,-99.99,,,-99.99,,2013-07-22 14:01:00,
2013-07-22 10:11:00,69.0,63.0,-100.00,SSW,210,9.0,11.0,79,-99.99,,,-99.99,,2013-07-22 14:11:00,
2013-07-22 10:32:00,71.0,63.0,-100.00,SSW,210,7.0,9.0,77,-99.99,,,-99.99,,2013-07-22 14:32:00,
2013-07-22 10:53:00,71.0,63.0,-100.00,SSW,210,4.0,7.0,76,-99.99,,,-99.99,,2013-07-22 14:53:00,
2013-07-22 11:01:00,72.0,64.0,-100.00,SW,220,7.0,9.0,75,-99.99,,,-99.99,,2013-07-22 15:01:00,
2013-07-22 11:11:00,72.0,64.0,-100.00,SW,220,7.0,9.0,75,-99.99,,,-99.99,,2013-07-22 15:11:00,
2013-07-22 11:32:00,72.0,64.0,-100.00,SSW,210,4.0,7.0,75,-99.99,,,-99.99,,2013-07-22 15:32:00,
2013-07-22 11:52:00,73.0,65.0,-100.00,WSW,240,7.0,9.0,75,-99.99,,,-99.99,,2013-07-22 15:52:00,
2013-07-22 12:01:00,73.0,64.0,-100.00,WSW,240,7.0,9.0,72,-99.99,,,-99.99,,2013-07-22 16:01:00,
2013-07-22 12:11:00,73.0,64.0,-100.00,WSW,240,7.0,9.0,72,-99.99,,,-99.99,,2013-07-22 16:11:00,
2013-07-22 12:21:00,74.0,64.0,-100.00,WSW,240,4.0,7.0,70,-99.99,,,-99.99,,2013-07-22 16:21:00,
2013-07-22 12:32:00,74.0,64.0,-100.00,WSW,240,4.0,7.0,70,-99.99,,,-99.99,,2013-07-22 16:32:00,
2013-07-22 12:42:00,72.0,66.0,-100.00,NNW,330,2.0,4.0,80,-99.99,,,-99.99,,2013-07-22 16:42:00,
2013-07-22 13:01:00,72.0,65.0,-100.00,NNW,340,2.0,4.0,78,-99.99,,,-99.99,,2013-07-22 17:01:00,
2013-07-22 14:01:00,71.0,66.0,-100.00,SW,220,4.0,7.0,83,-99.99,,,-99.99,,2013-07-22 18:01:00,
2013-07-22 14:32:00,72.0,67.0,-100.00,West,280,7.0,9.0,84,-99.99,,,-99.99,,2013-07-22 18:32:00,
2013-07-22 14:42:00,72.0,67.0,-100.00,NW,320,9.0,13.0,81,-99.99,,,-99.99,,2013-07-22 18:42:00,
2013-07-22 15:11:00,72.0,68.0,-100.00,WNW,300,9.0,13.0,86,-99.99,,,-99.99,,2013-07-22 19:11:00,
2013-07-22 16:00:00,71.0,69.0,-100.00,West,280,16.0,20.0,94,-99.99,,,-99.99,,2013-07-22 20:00:00,
2013-07-22 16:01:00,70.0,68.0,-100.00,WNW,290,13.0,18.0,92,-99.99,,,-99.99,,2013-07-22 20:01:00,
2013-07-22 16:12:00,70.0,69.0,-100.00,West,280,13.0,18.0,94,-99.99,,,-99.99,,2013-07-22 20:12:00,
2013-07-22 16:32:00,70.0,69.0,-100.00,West,270,16.0,20.0,94,-99.99,,,-99.99,,2013-07-22 20:32:00,
2013-07-22 16:43:00,71.0,69.0,-100.00,West,280,16.0,20.0,94,-99.99,,,-99.99,,2013-07-22 20:43:00,
2013-07-22 16:52:00,71.0,69.0,-100.00,West,280,16.0,20.0,94,-99.99,,,-99.99,,2013-07-22 20:52:00,
2013-07-22 17:22:00,71.0,70.0,-100.00,West,280,16.0,20.0,97,-99.99,,,-99.99,,2013-07-22 21:22:00,
2013-07-22 17:32:00,71.0,70.0,-100.00,West,280,16.0,20.0,97,-99.99,,,-99.99,,2013-07-22 21:32:00,
2013-07-22 17:43:00,71.0,70.0,-100.00,West,280,16.0,20.0,96,-99.99,,,-99.99,,2013-07-22 21:43:00,
2013-07-22 17:52:00,71.0,70.0,-100.00,West,280,16.0,20.0,96,-99.99,,,-99.99,,2013-07-22 21:52:00,
2013-07-22 18:00:00,71.0,70.0,-100.00,WNW,290,11.0,16.0,96,-99.99,,,-99.99,,2013-07-22 22:00:00,
2013-07-22 18:01:00,71.0,70.0,-100.00,West,280,11.0,16.0,95,-99.99,,,-99.99,,2013-07-22 22:01:00,
2013-07-22 18:11:00,71.0,70.0,-100.00,West,280,11.0,16.0,95,-99.99,,,-99.99,,2013-07-22 22:11:00,
2013-07-22 18:22:00,71.0,70.0,-100.00,West,280,11.0,13.0,96,-99.99,,,-99.99,,2013-07-22 22:22:00,
2013-07-22 18:32:00,71.0,70.0,-100.00,WNW,290,11.0,16.0,96,-99.99,,,-99.99,,2013-07-22 22:32:00,
2013-07-22 18:43:00,71.0,70.0,-100.00,WNW,290,11.0,16.0,96,-99.99,,,-99.99,,2013-07-22 22:43:00,
2013-07-22 18:52:00,71.0,70.0,-100.00,WNW,290,11.0,16.0,96,-99.99,,,-99.99,,2013-07-22 22:52:00,
2013-07-22 20:52:00,72.0,71.0,-100.00,South,190,2.0,4.0,98,-99.99,,,-99.99,,2013-07-23 00:52:00,
2013-07-22 21:01:00,73.0,71.0,-100.00,North,0,0.0,2.0,92,-99.99,,,-99.99,,2013-07-23 01:01:00,
2013-07-22 21:11:00,73.0,71.0,-100.00,North,0,0.0,2.0,92,-99.99,,,-99.99,,2013-07-23 01:11:00,
2013-07-22 21:22:00,73.0,71.0,-100.00,North,0,0.0,2.0,92,-99.99,,,-99.99,,2013-07-23 01:22:00,
2013-07-22 21:32:00,73.0,71.0,-100.00,North,0,0.0,2.0,92,-99.99,,,-99.99,,2013-07-23 01:32:00,
2013-07-22 21:43:00,72.0,71.0,-100.00,North,0,0.0,2.0,94,-99.99,,,-99.99,,2013-07-23 01:43:00,
2013-07-22 21:53:00,72.0,71.0,-100.00,North,0,0.0,2.0,94,-99.99,,,-99.99,,2013-07-23 01:53:00,
2013-07-22 22:01:00,72.0,71.0,-100.00,North,0,0.0,2.0,94,-99.99,,,-99.99,,2013-07-23 02:01:00,
2013-07-22 22:11:00,72.0,71.0,-100.00,North,0,0.0,2.0,94,-99.99,,,-99.99,,2013-07-23 02:11:00,
2013-07-22 22:22:00,72.0,72.0,-100.00,ESE,110,2.0,2.0,100,-99.99,,,-99.99,,2013-07-23 02:22:00,
2013-07-22 22:32:00,72.0,72.0,-100.00,ESE,110,2.0,2.0,100,-99.99,,,-99.99,,2013-07-23 02:32:00,
2013-07-22 22:43:00,72.0,72.0,-100.00,ESE,110,2.0,2.0,100,-99.99,,,-99.99,,2013-07-23 02:43:00,
2013-07-22 23:01:00,76.0,66.0,-100.00,SSW,210,11.0,16.0,70,-99.99,,,-99.99,,2013-07-23 03:01:00,
2013-07-22 23:11:00,76.0,66.0,-100.00,SSW,210,11.0,16.0,70,-99.99,,,-99.99,,2013-07-23 03:11:00,
2013-07-22 23:22:00,76.0,66.0,-100.00,SSW,210,11.0,16.0,70,-99.99,,,-99.99,,2013-07-23 03:22:00,
2013-07-22 23:33:00,76.0,66.0,-100.00,SSW,210,11.0,18.0,70,-99.99,,,-99.99,,2013-07-23 03:33:00,
2013-07-22 23:43:00,76.0,66.0,-100.00,SSW,210,11.0,18.0,70,-99.99,,,-99.99,,2013-07-23 03:43:00,